Time;durP1;ratioP1;P1;durP2;ratioP2;P2;SDS_P1;SDS_P2;PMS_P1;PMS_P2;Temp;Humidity;BMP_temperature;BMP_pressure;BME280_temperature;BME280_humidity;BME280_pressure;Samples;Min_cycle;Max_cycle;Signal;HPM_P1;HPM_P2
2023/12/18 00:00:47;;;;;;;55.20;35.92;;;;;;;;;;5588606;31;34730;-73
2023/12/18 00:03:51;;;;;;;54.42;35.45;;;;;;;;;;5588176;31;34547;-73
2023/12/18 00:06:53;;;;;;;53.40;34.15;;;;;;;;;;5587551;31;34787;-74
2023/12/18 00:09:56;;;;;;;51.42;34.20;;;;;;;;;;5588168;31;34510;-73
2023/12/18 00:12:58;;;;;;;49.70;34.63;;;;;;;;;;5588187;31;35006;-73
2023/12/18 00:16:01;;;;;;;51.33;35.22;;;;;;;;;;5588050;31;35431;-74
2023/12/18 00:19:04;;;;;;;53.33;35.25;;;;;;;;;;5588223;31;34135;-74
2023/12/18 00:22:07;;;;;;;49.00;34.40;;;;;;;;;;5588130;31;35349;-74
2023/12/18 00:25:09;;;;;;;53.03;36.15;;;;;;;;;;5588090;31;34656;-74
2023/12/18 00:28:12;;;;;;;53.78;35.83;;;;;;;;;;5587985;31;35318;-74
2023/12/18 00:31:15;;;;;;;49.75;34.15;;;;;;;;;;5588368;31;35299;-74
2023/12/18 00:34:18;;;;;;;49.33;35.70;;;;;;;;;;5588003;31;35408;-73
2023/12/18 00:37:22;;;;;;;56.20;35.25;;;;;;;;;;5588256;31;34757;-73
2023/12/18 00:40:25;;;;;;;52.97;35.70;;;;;;;;;;5587967;31;34621;-75
2023/12/18 00:43:27;;;;;;;50.42;34.45;;;;;;;;;;5588242;31;34595;-74
2023/12/18 00:46:30;;;;;;;51.97;34.33;;;;;;;;;;5588054;31;34680;-73
2023/12/18 00:49:32;;;;;;;53.78;35.58;;;;;;;;;;5587757;31;35270;-73
2023/12/18 00:52:36;;;;;;;51.42;34.40;;;;;;;;;;5587725;31;35086;-73
2023/12/18 00:55:39;;;;;;;50.47;34.47;;;;;;;;;;5587073;31;35279;-74
2023/12/18 00:58:42;;;;;;;50.47;34.28;;;;;;;;;;5586998;31;35337;-74
2023/12/18 01:01:44;;;;;;;48.63;34.70;;;;;;;;;;5587687;31;34549;-74
2023/12/18 01:04:47;;;;;;;50.38;33.63;;;;;;;;;;5588019;31;33461;-74
2023/12/18 01:07:50;;;;;;;47.38;33.58;;;;;;;;;;5587321;31;34559;-74
2023/12/18 01:10:52;;;;;;;49.58;34.13;;;;;;;;;;5587257;31;35414;-74
2023/12/18 01:13:56;;;;;;;52.05;35.13;;;;;;;;;;5587201;31;35182;-75
2023/12/18 01:16:58;;;;;;;52.15;35.45;;;;;;;;;;5586365;31;34716;-74
2023/12/18 01:20:02;;;;;;;50.78;34.08;;;;;;;;;;5586977;31;35513;-74
2023/12/18 01:23:05;;;;;;;52.62;36.47;;;;;;;;;;5587180;31;34568;-74
2023/12/18 01:26:07;;;;;;;49.13;34.88;;;;;;;;;;5587131;31;34721;-74
2023/12/18 01:29:10;;;;;;;51.97;35.47;;;;;;;;;;5587237;31;34575;-74
2023/12/18 01:32:12;;;;;;;52.13;35.25;;;;;;;;;;5587180;31;34777;-74
2023/12/18 01:35:15;;;;;;;53.00;35.17;;;;;;;;;;5587063;31;34783;-74
2023/12/18 01:38:18;;;;;;;53.25;35.67;;;;;;;;;;5587069;31;34732;-75
2023/12/18 01:41:20;;;;;;;53.22;36.20;;;;;;;;;;5586113;31;34771;-75
2023/12/18 01:44:23;;;;;;;56.88;35.75;;;;;;;;;;5586771;31;35275;-74
2023/12/18 01:47:26;;;;;;;51.80;35.92;;;;;;;;;;5586725;31;35424;-75
2023/12/18 01:50:28;;;;;;;53.08;36.38;;;;;;;;;;5587038;31;34712;-74
2023/12/18 01:53:36;;;;;;;54.92;38.85;;;;;;;;;;5586594;31;34983;-75
2023/12/18 01:56:39;;;;;;;55.95;38.80;;;;;;;;;;5586513;31;35441;-75
2023/12/18 01:59:42;;;;;;;56.50;38.25;;;;;;;;;;5586538;31;35324;-75
2023/12/18 02:02:45;;;;;;;54.28;38.97;;;;;;;;;;5586741;31;34682;-75
2023/12/18 02:05:50;;;;;;;54.72;40.10;;;;;;;;;;5586460;31;35384;-75
2023/12/18 02:08:53;;;;;;;56.03;38.85;;;;;;;;;;5587902;31;35369;-75
2023/12/18 02:11:56;;;;;;;56.05;38.15;;;;;;;;;;5589380;31;35364;-75
2023/12/18 02:14:58;;;;;;;58.90;39.92;;;;;;;;;;5589293;31;34681;-75
2023/12/18 02:18:01;;;;;;;53.25;39.17;;;;;;;;;;5589005;31;34583;-75
2023/12/18 02:21:04;;;;;;;53.30;39.00;;;;;;;;;;5589370;31;34515;-75
2023/12/18 02:24:07;;;;;;;52.10;36.63;;;;;;;;;;5589107;31;35348;-75
2023/12/18 02:27:09;;;;;;;51.40;37.00;;;;;;;;;;5589530;31;34519;-75
2023/12/18 02:30:16;;;;;;;50.05;37.45;;;;;;;;;;5589281;31;34712;-75
2023/12/18 02:33:19;;;;;;;54.97;37.30;;;;;;;;;;5589223;31;34505;-76
2023/12/18 02:36:22;;;;;;;50.33;36.83;;;;;;;;;;5589139;31;34556;-75
2023/12/18 02:39:24;;;;;;;54.53;38.47;;;;;;;;;;5589476;31;34676;-75
2023/12/18 02:42:27;;;;;;;55.38;39.42;;;;;;;;;;5589030;31;34679;-75
2023/12/18 02:45:29;;;;;;;55.70;40.17;;;;;;;;;;5589375;31;34767;-75
2023/12/18 02:48:34;;;;;;;55.17;39.08;;;;;;;;;;5588929;31;34645;-74
2023/12/18 02:51:36;;;;;;;53.67;38.03;;;;;;;;;;5589114;31;35374;-74
2023/12/18 02:54:40;;;;;;;58.20;39.33;;;;;;;;;;5589110;31;34558;-74
2023/12/18 02:57:43;;;;;;;58.30;39.45;;;;;;;;;;5588985;31;35365;-75
2023/12/18 03:00:46;;;;;;;56.20;38.33;;;;;;;;;;5588339;31;35516;-75
2023/12/18 03:03:48;;;;;;;57.50;40.05;;;;;;;;;;5589419;31;35390;-75
2023/12/18 03:06:51;;;;;;;60.65;39.72;;;;;;;;;;5588831;31;34638;-75
2023/12/18 03:09:54;;;;;;;55.25;40.08;;;;;;;;;;5588904;31;34719;-74
2023/12/18 03:12:56;;;;;;;56.47;40.63;;;;;;;;;;5588900;31;35439;-75
2023/12/18 03:15:59;;;;;;;58.65;39.60;;;;;;;;;;5588987;31;34882;-75
2023/12/18 03:19:01;;;;;;;56.65;39.53;;;;;;;;;;5588118;31;34590;-75
2023/12/18 03:22:04;;;;;;;56.50;39.60;;;;;;;;;;5588598;31;35374;-75
2023/12/18 03:25:07;;;;;;;57.65;41.05;;;;;;;;;;5589016;31;35308;-75
2023/12/18 03:28:10;;;;;;;56.10;41.63;;;;;;;;;;5589014;31;34688;-75
2023/12/18 03:31:14;;;;;;;59.80;41.78;;;;;;;;;;5588772;31;34451;-75
2023/12/18 03:34:17;;;;;;;54.38;39.33;;;;;;;;;;5588851;31;34581;-75
2023/12/18 03:37:20;;;;;;;57.50;39.92;;;;;;;;;;5588645;31;35274;-75
2023/12/18 03:40:22;;;;;;;56.67;40.67;;;;;;;;;;5588563;31;35354;-74
2023/12/18 03:43:25;;;;;;;62.17;43.42;;;;;;;;;;5588439;31;35316;-74
2023/12/18 03:46:28;;;;;;;58.60;42.00;;;;;;;;;;5588463;31;34470;-74
2023/12/18 03:49:30;;;;;;;57.67;41.10;;;;;;;;;;5588395;31;34768;-75
2023/12/18 03:52:33;;;;;;;60.03;43.42;;;;;;;;;;5588637;31;34556;-75
2023/12/18 03:55:35;;;;;;;63.85;43.45;;;;;;;;;;5588282;31;35400;-74
2023/12/18 03:58:38;;;;;;;57.13;40.80;;;;;;;;;;5588293;31;34710;-74
2023/12/18 04:01:40;;;;;;;62.28;44.00;;;;;;;;;;5588286;31;34656;-74
2023/12/18 04:04:44;;;;;;;60.63;42.78;;;;;;;;;;5588319;31;35294;-75
2023/12/18 04:07:46;;;;;;;59.15;42.38;;;;;;;;;;5588376;31;33171;-75
2023/12/18 04:10:49;;;;;;;62.10;43.83;;;;;;;;;;5588345;31;34860;-75
2023/12/18 04:13:52;;;;;;;60.10;42.38;;;;;;;;;;5588306;31;34731;-74
2023/12/18 04:16:54;;;;;;;61.25;42.15;;;;;;;;;;5583510;31;144607;-75
2023/12/18 04:19:57;;;;;;;60.22;42.17;;;;;;;;;;5587404;31;35290;-75
2023/12/18 04:22:59;;;;;;;57.08;41.08;;;;;;;;;;5588174;31;35283;-74
2023/12/18 04:26:02;;;;;;;62.00;44.00;;;;;;;;;;5588290;31;34696;-75
2023/12/18 04:29:05;;;;;;;62.13;42.78;;;;;;;;;;5588368;31;33396;-74
2023/12/18 04:32:07;;;;;;;66.05;45.65;;;;;;;;;;5587848;31;34468;-75
2023/12/18 04:35:10;;;;;;;66.30;42.85;;;;;;;;;;5587952;31;34563;-75
2023/12/18 04:38:12;;;;;;;64.78;43.70;;;;;;;;;;5587893;31;34767;-75
2023/12/18 04:41:21;;;;;;;61.92;44.90;;;;;;;;;;5587946;31;34195;-75
2023/12/18 04:44:24;;;;;;;60.80;44.17;;;;;;;;;;5588050;31;34731;-75
2023/12/18 04:47:26;;;;;;;62.53;44.60;;;;;;;;;;5587988;31;34453;-75
2023/12/18 04:50:29;;;;;;;57.53;40.65;;;;;;;;;;5587673;31;35191;-75
2023/12/18 04:53:33;;;;;;;63.35;44.08;;;;;;;;;;5588133;31;34600;-74
2023/12/18 04:56:36;;;;;;;59.78;42.15;;;;;;;;;;5587567;31;35403;-75
2023/12/18 04:59:38;;;;;;;65.60;45.50;;;;;;;;;;5587629;31;35383;-75
2023/12/18 05:02:41;;;;;;;64.45;43.85;;;;;;;;;;5587559;31;34700;-74
2023/12/18 05:05:44;;;;;;;65.87;45.08;;;;;;;;;;5587923;31;34535;-75
2023/12/18 05:08:47;;;;;;;65.15;44.47;;;;;;;;;;5587439;31;34679;-75
2023/12/18 05:11:50;;;;;;;68.78;45.17;;;;;;;;;;5587639;31;34876;-75
2023/12/18 05:14:53;;;;;;;64.15;45.35;;;;;;;;;;5587426;31;34599;-75
2023/12/18 05:17:56;;;;;;;64.07;46.03;;;;;;;;;;5587541;31;34791;-75
2023/12/18 05:20:59;;;;;;;68.50;47.10;;;;;;;;;;5587207;31;34889;-75
2023/12/18 05:24:02;;;;;;;68.70;46.97;;;;;;;;;;5587151;31;34792;-75
2023/12/18 05:27:05;;;;;;;62.03;44.75;;;;;;;;;;5587074;31;34779;-74
2023/12/18 05:30:07;;;;;;;80.07;57.05;;;;;;;;;;5586957;31;34726;-75
2023/12/18 05:33:11;;;;;;;69.25;48.95;;;;;;;;;;5586712;31;35378;-75
2023/12/18 05:36:14;;;;;;;74.10;51.13;;;;;;;;;;5586886;31;34671;-74
2023/12/18 05:39:17;;;;;;;75.22;50.10;;;;;;;;;;5586705;31;35395;-74
2023/12/18 05:42:20;;;;;;;72.53;51.15;;;;;;;;;;5586588;31;35313;-74
2023/12/18 05:45:22;;;;;;;76.22;50.00;;;;;;;;;;5589463;31;35364;-74
2023/12/18 05:48:25;;;;;;;73.72;51.45;;;;;;;;;;5589252;31;34650;-76
2023/12/18 05:51:28;;;;;;;72.53;50.33;;;;;;;;;;5589338;31;34581;-75
2023/12/18 05:54:31;;;;;;;73.87;50.35;;;;;;;;;;5589487;31;34680;-75
2023/12/18 05:57:34;;;;;;;71.82;50.03;;;;;;;;;;5589310;31;34559;-75
2023/12/18 06:00:38;;;;;;;69.28;49.72;;;;;;;;;;5588940;31;35400;-75
2023/12/18 06:03:41;;;;;;;74.68;49.35;;;;;;;;;;5588468;31;34644;-75
2023/12/18 06:06:43;;;;;;;77.22;52.13;;;;;;;;;;5589082;31;34676;-75
2023/12/18 06:09:46;;;;;;;70.97;50.90;;;;;;;;;;5588865;31;34708;-76
2023/12/18 06:12:51;;;;;;;73.00;51.03;;;;;;;;;;5589361;31;34363;-75
2023/12/18 06:15:54;;;;;;;78.37;54.85;;;;;;;;;;5588952;31;35359;-74
2023/12/18 06:18:59;;;;;;;72.53;50.78;;;;;;;;;;5588820;31;35314;-75
2023/12/18 06:22:02;;;;;;;75.65;54.05;;;;;;;;;;5589091;31;34771;-74
2023/12/18 06:25:05;;;;;;;80.35;56.95;;;;;;;;;;5588971;31;34746;-76
2023/12/18 06:28:08;;;;;;;83.87;55.95;;;;;;;;;;5588819;31;34558;-75
2023/12/18 06:31:10;;;;;;;83.55;56.55;;;;;;;;;;5588940;31;35201;-75
2023/12/18 06:34:13;;;;;;;80.65;58.08;;;;;;;;;;5588971;31;34581;-77
2023/12/18 06:37:16;;;;;;;83.25;56.28;;;;;;;;;;5588787;31;34622;-75
2023/12/18 06:40:19;;;;;;;80.57;53.87;;;;;;;;;;5588956;31;34712;-75
2023/12/18 06:43:21;;;;;;;76.75;54.45;;;;;;;;;;5588173;31;35222;-75
2023/12/18 06:46:24;;;;;;;74.40;51.90;;;;;;;;;;5589231;31;35344;-75
2023/12/18 06:49:26;;;;;;;72.70;53.10;;;;;;;;;;5589047;31;34980;-76
2023/12/18 06:52:38;;;;;;;82.28;56.22;;;;;;;;;;5588519;31;34754;-75
2023/12/18 06:55:41;;;;;;;80.32;54.17;;;;;;;;;;5587634;31;34687;-75
2023/12/18 06:58:44;;;;;;;77.75;54.15;;;;;;;;;;5588526;31;34830;-74
2023/12/18 07:01:47;;;;;;;84.43;56.90;;;;;;;;;;5588554;31;34608;-75
2023/12/18 07:04:49;;;;;;;78.03;54.40;;;;;;;;;;5588454;31;34738;-74
2023/12/18 07:07:52;;;;;;;80.05;54.17;;;;;;;;;;5588784;31;35245;-76
2023/12/18 07:10:57;;;;;;;80.68;56.70;;;;;;;;;;5588623;31;34788;-75
2023/12/18 07:13:59;;;;;;;79.62;54.55;;;;;;;;;;5588493;31;34761;-76
2023/12/18 07:17:02;;;;;;;82.12;55.25;;;;;;;;;;5588621;31;34371;-76
2023/12/18 07:20:06;;;;;;;72.40;50.55;;;;;;;;;;5589152;31;34737;-76
2023/12/18 07:23:10;;;;;;;73.50;51.03;;;;;;;;;;5588835;31;34826;-75
2023/12/18 07:26:13;;;;;;;75.50;53.08;;;;;;;;;;5588725;31;34771;-76
2023/12/18 07:29:16;;;;;;;73.00;51.63;;;;;;;;;;5588509;31;34993;-75
2023/12/18 07:32:18;;;;;;;76.47;51.97;;;;;;;;;;5574827;31;34626;-75
2023/12/18 07:35:21;;;;;;;77.57;52.33;;;;;;;;;;5588874;31;34672;-75
2023/12/18 07:38:24;;;;;;;70.28;50.33;;;;;;;;;;5588457;31;34906;-75
2023/12/18 07:41:30;;;;;;;70.80;50.42;;;;;;;;;;5588621;31;34556;-75
2023/12/18 07:44:32;;;;;;;75.95;51.42;;;;;;;;;;5588839;31;35279;-75
2023/12/18 07:47:37;;;;;;;73.32;51.53;;;;;;;;;;5588578;31;34691;-75
2023/12/18 07:50:40;;;;;;;75.25;51.85;;;;;;;;;;5588387;31;35252;-75
2023/12/18 07:53:44;;;;;;;74.65;51.85;;;;;;;;;;5588579;31;35395;-76
2023/12/18 07:56:46;;;;;;;74.00;50.80;;;;;;;;;;5590251;31;35308;-76
2023/12/18 07:59:49;;;;;;;70.28;51.03;;;;;;;;;;5588530;31;34537;-76
2023/12/18 08:02:51;;;;;;;77.55;53.45;;;;;;;;;;5588768;31;34456;-76
2023/12/18 08:05:54;;;;;;;74.97;52.75;;;;;;;;;;5588080;31;34508;-77
2023/12/18 08:08:56;;;;;;;79.97;55.30;;;;;;;;;;5588021;31;34715;-75
2023/12/18 08:11:59;;;;;;;75.45;55.08;;;;;;;;;;5588460;31;34523;-77
2023/12/18 08:15:02;;;;;;;77.87;54.08;;;;;;;;;;5588331;31;34674;-76
2023/12/18 08:18:05;;;;;;;78.80;53.92;;;;;;;;;;5588061;31;35407;-75
2023/12/18 08:21:11;;;;;;;74.05;52.80;;;;;;;;;;5588326;31;34715;-76
2023/12/18 08:24:14;;;;;;;72.28;51.83;;;;;;;;;;5588167;31;35312;-76
2023/12/18 08:27:16;;;;;;;71.47;49.80;;;;;;;;;;5588283;31;34684;-76
2023/12/18 08:30:19;;;;;;;70.25;49.42;;;;;;;;;;5587912;31;34598;-76
2023/12/18 08:33:21;;;;;;;67.47;51.42;;;;;;;;;;5587763;31;34600;-77
2023/12/18 08:36:24;;;;;;;72.70;51.25;;;;;;;;;;5588058;31;35188;-77
2023/12/18 08:39:26;;;;;;;76.53;53.05;;;;;;;;;;5587928;31;34552;-76
2023/12/18 08:42:29;;;;;;;76.50;54.80;;;;;;;;;;5588085;31;34613;-76
2023/12/18 08:45:32;;;;;;;74.15;51.65;;;;;;;;;;5587686;31;34717;-76
2023/12/18 08:48:35;;;;;;;71.72;50.03;;;;;;;;;;5587413;31;35336;-76
2023/12/18 08:51:38;;;;;;;63.65;48.53;;;;;;;;;;5586863;31;34642;-76
2023/12/18 08:54:40;;;;;;;64.62;49.67;;;;;;;;;;5587612;31;34678;-76
2023/12/18 08:57:43;;;;;;;66.78;50.75;;;;;;;;;;5587606;31;34950;-77
2023/12/18 09:00:46;;;;;;;72.97;53.83;;;;;;;;;;5587365;31;35390;-76
2023/12/18 09:03:48;;;;;;;77.32;53.80;;;;;;;;;;5587517;31;34601;-76
2023/12/18 09:06:51;;;;;;;75.45;53.65;;;;;;;;;;5586793;31;34697;-76
2023/12/18 09:09:54;;;;;;;71.78;52.03;;;;;;;;;;5587069;31;34618;-77
2023/12/18 09:12:57;;;;;;;71.65;51.53;;;;;;;;;;5587404;31;35404;-76
2023/12/18 09:15:59;;;;;;;68.55;50.33;;;;;;;;;;5587266;31;34625;-76
2023/12/18 09:19:02;;;;;;;72.40;51.97;;;;;;;;;;5589013;31;34792;-77
2023/12/18 09:22:04;;;;;;;71.55;50.83;;;;;;;;;;5589704;31;35367;-76
2023/12/18 09:25:08;;;;;;;71.65;50.38;;;;;;;;;;5589698;31;35420;-76
2023/12/18 09:28:10;;;;;;;65.70;48.50;;;;;;;;;;5589581;31;34526;-76
2023/12/18 09:31:14;;;;;;;64.97;48.22;;;;;;;;;;5589854;31;35391;-76
2023/12/18 09:34:17;;;;;;;69.47;48.67;;;;;;;;;;5589434;31;34729;-76
2023/12/18 09:37:20;;;;;;;66.68;48.25;;;;;;;;;;5589555;31;35396;-77
2023/12/18 09:40:22;;;;;;;67.62;49.33;;;;;;;;;;5589402;31;35302;-77
2023/12/18 09:43:27;;;;;;;65.95;47.88;;;;;;;;;;5589397;31;34736;-75
2023/12/18 09:46:29;;;;;;;66.15;47.50;;;;;;;;;;5589574;31;35244;-77
2023/12/18 09:49:32;;;;;;;66.57;46.15;;;;;;;;;;5589610;31;34874;-77
2023/12/18 09:52:39;;;;;;;62.65;46.33;;;;;;;;;;5589472;31;34651;-76
2023/12/18 09:55:44;;;;;;;63.63;47.03;;;;;;;;;;5589448;31;34715;-77
2023/12/18 09:58:47;;;;;;;64.03;46.05;;;;;;;;;;5589466;31;34630;-77
2023/12/18 10:01:50;;;;;;;63.05;45.83;;;;;;;;;;5589309;31;35396;-77
2023/12/18 10:04:53;;;;;;;62.53;45.63;;;;;;;;;;5589320;31;34557;-76
2023/12/18 10:07:59;;;;;;;57.62;43.60;;;;;;;;;;5589412;31;35432;-75
2023/12/18 10:11:04;;;;;;;58.87;44.17;;;;;;;;;;5589799;31;35270;-76
2023/12/18 10:14:06;;;;;;;59.65;43.40;;;;;;;;;;5589171;31;34508;-76
2023/12/18 10:17:09;;;;;;;58.17;41.72;;;;;;;;;;5589113;31;34617;-76
2023/12/18 10:20:12;;;;;;;60.95;43.67;;;;;;;;;;5589271;31;34724;-77
2023/12/18 10:23:14;;;;;;;57.80;42.47;;;;;;;;;;5588451;31;34715;-77
2023/12/18 10:26:17;;;;;;;59.00;40.42;;;;;;;;;;5589172;31;35403;-77
2023/12/18 10:29:19;;;;;;;51.37;36.63;;;;;;;;;;5588291;31;34503;-76
2023/12/18 10:32:23;;;;;;;48.95;37.58;;;;;;;;;;5589301;31;34594;-76
2023/12/18 10:35:27;;;;;;;54.92;36.92;;;;;;;;;;5589144;31;35440;-75
2023/12/18 10:38:34;;;;;;;54.78;37.42;;;;;;;;;;5589218;31;33677;-76
2023/12/18 10:41:38;;;;;;;50.95;36.58;;;;;;;;;;5589105;31;34898;-76
2023/12/18 10:44:43;;;;;;;52.75;36.40;;;;;;;;;;5592524;31;34608;-78
2023/12/18 10:47:47;;;;;;;49.17;35.22;;;;;;;;;;5595076;31;34926;-77
2023/12/18 10:50:50;;;;;;;50.90;36.42;;;;;;;;;;5590720;31;34834;-76
2023/12/18 10:53:53;;;;;;;53.38;35.80;;;;;;;;;;5593298;31;34692;-76
2023/12/18 10:56:57;;;;;;;49.60;35.00;;;;;;;;;;5589061;31;34697;-77
2023/12/18 10:59:59;;;;;;;52.75;35.20;;;;;;;;;;5588968;31;35299;-76
2023/12/18 11:03:02;;;;;;;47.05;35.20;;;;;;;;;;5588941;31;35376;-76
2023/12/18 11:06:07;;;;;;;52.08;35.60;;;;;;;;;;5588645;31;35313;-76
2023/12/18 11:09:10;;;;;;;45.83;34.72;;;;;;;;;;5588652;31;34680;-76
2023/12/18 11:12:15;;;;;;;53.10;35.85;;;;;;;;;;5589309;31;34743;-75
2023/12/18 11:15:38;;;;;;;56.65;37.55;;;;;;;;;;5589976;31;35088;-76
2023/12/18 11:18:46;;;;;;;52.22;37.00;;;;;;;;;;5588448;31;34698;-74
2023/12/18 11:21:50;;;;;;;55.22;37.05;;;;;;;;;;5588960;31;34780;-74
2023/12/18 11:24:53;;;;;;;56.95;36.75;;;;;;;;;;5588564;31;35344;-76
2023/12/18 11:27:56;;;;;;;57.40;37.00;;;;;;;;;;5588943;31;35356;-76
2023/12/18 11:31:00;;;;;;;54.15;36.10;;;;;;;;;;5587842;31;35256;-74
2023/12/18 11:34:05;;;;;;;53.38;36.40;;;;;;;;;;5588596;31;34862;-74
2023/12/18 11:37:08;;;;;;;52.92;36.03;;;;;;;;;;5588562;31;34670;-74
2023/12/18 11:40:29;;;;;;;62.88;36.78;;;;;;;;;;5589029;31;35320;-76
2023/12/18 11:43:35;;;;;;;61.30;37.50;;;;;;;;;;5588560;31;34695;-75
2023/12/18 11:46:38;;;;;;;61.45;37.72;;;;;;;;;;5588611;31;35393;-75
2023/12/18 11:49:41;;;;;;;68.90;38.72;;;;;;;;;;5588575;31;34640;-74
2023/12/18 11:52:46;;;;;;;62.20;39.78;;;;;;;;;;5588520;31;35291;-74
2023/12/18 11:55:52;;;;;;;60.92;39.10;;;;;;;;;;5588745;31;34625;-75
2023/12/18 11:58:55;;;;;;;64.20;39.35;;;;;;;;;;5588622;31;34519;-75
2023/12/18 12:01:58;;;;;;;56.97;37.97;;;;;;;;;;5587307;31;34530;-75
2023/12/18 12:05:02;;;;;;;57.85;38.00;;;;;;;;;;5588402;31;35387;-75
2023/12/18 12:08:05;;;;;;;55.75;37.25;;;;;;;;;;5588595;31;33515;-75
2023/12/18 12:11:08;;;;;;;53.85;37.17;;;;;;;;;;5588639;31;35089;-75
2023/12/18 12:14:11;;;;;;;58.35;38.50;;;;;;;;;;5588628;31;34711;-76
2023/12/18 12:17:19;;;;;;;55.58;38.22;;;;;;;;;;5588061;31;33232;-75
2023/12/18 12:20:21;;;;;;;59.95;38.03;;;;;;;;;;5588095;31;35280;-76
2023/12/18 12:23:24;;;;;;;51.92;38.25;;;;;;;;;;5588134;31;34845;-75
2023/12/18 12:26:27;;;;;;;60.47;38.85;;;;;;;;;;5588120;31;34692;-75
2023/12/18 12:29:30;;;;;;;64.60;39.95;;;;;;;;;;5587400;31;35239;-76
2023/12/18 12:32:32;;;;;;;65.65;40.17;;;;;;;;;;5587445;31;34621;-75
2023/12/18 12:35:35;;;;;;;58.92;39.85;;;;;;;;;;5588289;31;34612;-74
2023/12/18 12:38:42;;;;;;;60.00;39.63;;;;;;;;;;5587965;31;33996;-74
2023/12/18 12:41:45;;;;;;;55.72;39.20;;;;;;;;;;5587434;31;34840;-74
2023/12/18 12:44:48;;;;;;;57.85;39.63;;;;;;;;;;5587248;31;34825;-73
2023/12/18 12:47:50;;;;;;;58.00;39.30;;;;;;;;;;5587500;31;34945;-73
2023/12/18 12:50:53;;;;;;;58.80;39.03;;;;;;;;;;5587621;31;34503;-74
2023/12/18 12:53:59;;;;;;;60.83;39.90;;;;;;;;;;5587589;31;34810;-73
2023/12/18 12:57:01;;;;;;;56.65;39.80;;;;;;;;;;5587546;31;34877;-74
2023/12/18 13:00:08;;;;;;;67.37;39.17;;;;;;;;;;5587555;31;34918;-74
2023/12/18 13:03:12;;;;;;;62.65;38.63;;;;;;;;;;5587697;31;35443;-73
2023/12/18 13:06:17;;;;;;;57.05;39.97;;;;;;;;;;5587600;31;34688;-75
2023/12/18 13:09:19;;;;;;;59.10;38.47;;;;;;;;;;5587523;31;34649;-75
2023/12/18 13:12:23;;;;;;;52.13;37.78;;;;;;;;;;5587474;31;34719;-74
2023/12/18 13:15:26;;;;;;;54.72;38.08;;;;;;;;;;5587376;31;34528;-74
2023/12/18 13:18:29;;;;;;;56.20;37.50;;;;;;;;;;5586546;31;34439;-74
2023/12/18 13:21:32;;;;;;;60.30;38.75;;;;;;;;;;5587242;31;34657;-75
2023/12/18 13:24:35;;;;;;;56.40;39.55;;;;;;;;;;5587306;31;34612;-74
2023/12/18 13:27:37;;;;;;;56.85;39.53;;;;;;;;;;5586336;31;35388;-74
2023/12/18 13:30:40;;;;;;;56.65;38.90;;;;;;;;;;5587119;31;35337;-74
2023/12/18 13:33:46;;;;;;;58.70;38.65;;;;;;;;;;5586886;31;34701;-74
2023/12/18 13:36:50;;;;;;;56.05;38.80;;;;;;;;;;5586774;31;35243;-74
2023/12/18 13:39:53;;;;;;;56.05;39.10;;;;;;;;;;5586715;31;34752;-75
2023/12/18 13:42:56;;;;;;;57.83;39.35;;;;;;;;;;5586654;31;34503;-74
2023/12/18 13:45:59;;;;;;;55.92;39.28;;;;;;;;;;5586819;31;34511;-74
2023/12/18 13:49:02;;;;;;;60.08;39.47;;;;;;;;;;5586906;31;34518;-74
2023/12/18 13:52:05;;;;;;;62.15;39.47;;;;;;;;;;5586761;31;34710;-74
2023/12/18 13:55:07;;;;;;;67.45;40.72;;;;;;;;;;5586686;31;34683;-74
2023/12/18 13:58:10;;;;;;;63.17;41.28;;;;;;;;;;5586517;31;34916;-74
2023/12/18 14:01:13;;;;;;;57.00;39.80;;;;;;;;;;5586331;31;34591;-74
2023/12/18 14:04:16;;;;;;;59.58;41.53;;;;;;;;;;5587406;31;34728;-73
2023/12/18 14:07:19;;;;;;;70.00;41.83;;;;;;;;;;5589153;31;34521;-73
2023/12/18 14:10:22;;;;;;;60.55;42.25;;;;;;;;;;5589007;31;34611;-74
2023/12/18 14:13:24;;;;;;;66.55;41.97;;;;;;;;;;5589090;31;35419;-74
2023/12/18 14:16:27;;;;;;;63.10;41.97;;;;;;;;;;5589010;31;34723;-73
2023/12/18 14:19:30;;;;;;;62.45;42.65;;;;;;;;;;5588849;31;34673;-74
2023/12/18 14:22:33;;;;;;;61.17;40.10;;;;;;;;;;5589331;31;35371;-74
2023/12/18 14:25:36;;;;;;;61.85;42.67;;;;;;;;;;5588987;31;35350;-74
2023/12/18 14:28:39;;;;;;;65.75;41.17;;;;;;;;;;5589008;31;34736;-74
2023/12/18 14:31:41;;;;;;;64.53;40.92;;;;;;;;;;5588567;31;34676;-73
2023/12/18 14:34:44;;;;;;;61.17;36.67;;;;;;;;;;5588565;31;34792;-74
2023/12/18 14:37:47;;;;;;;53.72;36.88;;;;;;;;;;5588036;31;34627;-74
2023/12/18 14:40:50;;;;;;;50.10;34.13;;;;;;;;;;5589058;31;34604;-74
2023/12/18 14:43:52;;;;;;;54.63;34.28;;;;;;;;;;5588817;31;35320;-74
2023/12/18 14:46:56;;;;;;;53.15;33.70;;;;;;;;;;5588253;31;34696;-74
2023/12/18 14:50:06;;;;;;;49.88;32.28;;;;;;;;;;5588559;31;35372;-74
2023/12/18 14:53:09;;;;;;;60.25;32.72;;;;;;;;;;5588755;31;35371;-74
2023/12/18 14:56:11;;;;;;;56.42;33.33;;;;;;;;;;5588868;31;34599;-74
2023/12/18 14:59:28;;;;;;;56.50;33.63;;;;;;;;;;5589027;31;35355;-74
2023/12/18 15:02:31;;;;;;;48.58;32.83;;;;;;;;;;5588508;31;34532;-74
2023/12/18 15:05:34;;;;;;;55.55;33.80;;;;;;;;;;5588490;31;35343;-74
2023/12/18 15:08:37;;;;;;;57.00;32.38;;;;;;;;;;5588669;31;35318;-74
2023/12/18 15:11:41;;;;;;;49.55;31.23;;;;;;;;;;5588474;31;34759;-74
2023/12/18 15:14:43;;;;;;;60.17;33.70;;;;;;;;;;5588336;31;34831;-74
2023/12/18 15:17:46;;;;;;;53.28;33.13;;;;;;;;;;5587679;31;35333;-73
2023/12/18 15:20:49;;;;;;;53.97;31.58;;;;;;;;;;5588628;31;34896;-73
2023/12/18 15:23:52;;;;;;;57.15;31.62;;;;;;;;;;5588002;31;34712;-73
2023/12/18 15:26:54;;;;;;;50.42;32.15;;;;;;;;;;5587594;31;34843;-73
2023/12/18 15:29:57;;;;;;;58.50;30.95;;;;;;;;;;5588339;31;34505;-73
2023/12/18 15:33:00;;;;;;;48.33;31.90;;;;;;;;;;5588173;31;35275;-73
2023/12/18 15:36:03;;;;;;;54.92;31.85;;;;;;;;;;5588141;31;34125;-73
2023/12/18 15:39:17;;;;;;;60.15;32.60;;;;;;;;;;5588246;31;34767;-74
2023/12/18 15:42:22;;;;;;;54.80;32.35;;;;;;;;;;5588613;31;35291;-72
2023/12/18 15:45:25;;;;;;;49.13;33.30;;;;;;;;;;5587329;31;35325;-74
2023/12/18 15:48:28;;;;;;;58.45;33.97;;;;;;;;;;5587603;31;34763;-75
2023/12/18 15:51:33;;;;;;;57.60;34.08;;;;;;;;;;5588047;31;34237;-74
2023/12/18 15:54:36;;;;;;;64.95;34.95;;;;;;;;;;5587835;31;34545;-74
2023/12/18 15:57:39;;;;;;;61.17;34.08;;;;;;;;;;5588115;31;34385;-73
2023/12/18 16:00:41;;;;;;;64.05;34.15;;;;;;;;;;5588092;31;34649;-75
2023/12/18 16:03:44;;;;;;;53.08;33.90;;;;;;;;;;5587969;31;34723;-74
2023/12/18 16:06:50;;;;;;;55.72;33.47;;;;;;;;;;5588066;31;34593;-74
2023/12/18 16:09:53;;;;;;;52.30;32.88;;;;;;;;;;5588169;31;35072;-73
2023/12/18 16:12:56;;;;;;;50.03;32.88;;;;;;;;;;5587941;31;34828;-73
2023/12/18 16:15:59;;;;;;;52.75;34.38;;;;;;;;;;5588130;31;35337;-73
2023/12/18 16:19:02;;;;;;;57.58;34.35;;;;;;;;;;5587447;31;34742;-73
2023/12/18 16:22:07;;;;;;;54.10;35.70;;;;;;;;;;5588433;31;33206;-74
2023/12/18 16:25:12;;;;;;;57.78;37.13;;;;;;;;;;5587895;31;35309;-74
2023/12/18 16:28:15;;;;;;;62.67;37.42;;;;;;;;;;5587865;31;34663;-75
2023/12/18 16:31:17;;;;;;;58.25;37.65;;;;;;;;;;5587902;31;35383;-74
2023/12/18 16:34:22;;;;;;;72.45;44.25;;;;;;;;;;5587175;31;34574;-74
2023/12/18 16:37:26;;;;;;;74.62;47.22;;;;;;;;;;5587870;31;35380;-74
2023/12/18 16:40:30;;;;;;;72.68;47.83;;;;;;;;;;5587100;31;34868;-74
2023/12/18 16:43:35;;;;;;;80.07;51.25;;;;;;;;;;5587754;31;35350;-74
2023/12/18 16:46:38;;;;;;;76.15;51.05;;;;;;;;;;5586902;31;34756;-74
2023/12/18 16:49:50;;;;;;;77.82;50.88;;;;;;;;;;5587947;31;35343;-74
2023/12/18 16:52:53;;;;;;;84.22;56.42;;;;;;;;;;5586883;31;35368;-74
2023/12/18 16:55:55;;;;;;;84.10;56.30;;;;;;;;;;5587163;31;34569;-73
2023/12/18 16:58:57;;;;;;;81.10;55.40;;;;;;;;;;5587478;31;34590;-73
2023/12/18 17:02:00;;;;;;;84.05;55.20;;;;;;;;;;5587595;31;35329;-73
2023/12/18 17:05:03;;;;;;;87.35;57.65;;;;;;;;;;5586844;31;35342;-74
2023/12/18 17:08:05;;;;;;;81.72;56.40;;;;;;;;;;5587405;31;34597;-73
2023/12/18 17:11:08;;;;;;;83.78;57.42;;;;;;;;;;5587484;31;34574;-74
2023/12/18 17:14:13;;;;;;;81.12;57.85;;;;;;;;;;5587261;31;34589;-74
2023/12/18 17:17:16;;;;;;;80.87;59.85;;;;;;;;;;5586250;31;34586;-75
2023/12/18 17:20:21;;;;;;;86.97;59.38;;;;;;;;;;5587093;31;34379;-74
2023/12/18 17:23:24;;;;;;;83.57;58.72;;;;;;;;;;5586945;31;35509;-74
2023/12/18 17:26:27;;;;;;;88.30;60.33;;;;;;;;;;5586983;31;34681;-73
2023/12/18 17:29:29;;;;;;;85.75;60.97;;;;;;;;;;5586595;31;35258;-74
2023/12/18 17:32:32;;;;;;;88.80;62.28;;;;;;;;;;5586952;31;34886;-74
2023/12/18 17:35:36;;;;;;;85.18;63.03;;;;;;;;;;5586657;31;34678;-74
2023/12/18 17:38:40;;;;;;;91.90;65.05;;;;;;;;;;5587182;31;34804;-74
2023/12/18 17:41:46;;;;;;;86.12;61.58;;;;;;;;;;5589472;31;34551;-74
2023/12/18 17:44:49;;;;;;;93.57;63.08;;;;;;;;;;5589518;31;34492;-74